createdAt,value
2023-05-06T00:02:09.840Z,94.50
2023-05-06T00:04:37.171Z,95.40
2023-05-06T00:07:04.285Z,95.10
2023-05-06T00:09:31.088Z,94.00
2023-05-06T00:11:57.905Z,93.90
2023-05-06T00:14:24.701Z,94.40
2023-05-06T00:16:51.522Z,93.90
2023-05-06T00:19:18.359Z,93.30
2023-05-06T00:21:45.328Z,93.20
2023-05-06T00:24:12.210Z,93.00
2023-05-06T00:26:38.964Z,92.50
2023-05-06T00:29:05.809Z,92.30
2023-05-06T00:31:32.572Z,92.20
2023-05-06T00:33:59.369Z,92.30
2023-05-06T00:36:26.361Z,91.90
2023-05-06T00:38:53.102Z,90.60
2023-05-06T00:41:19.932Z,92.50
2023-05-06T00:43:46.732Z,90.90
2023-05-06T00:46:16.163Z,91.80
2023-05-06T00:48:44.672Z,90.80
2023-05-06T00:51:12.679Z,92.50
2023-05-06T00:53:40.297Z,92.80
2023-05-06T00:56:07.686Z,93.10
2023-05-06T00:58:35.031Z,92.50
2023-05-06T01:01:03.107Z,92.60
2023-05-06T01:03:30.297Z,93.20
2023-05-06T01:06:21.883Z,92.50
2023-05-06T01:09:22.544Z,92.70
2023-05-06T01:12:01.563Z,92.60
2023-05-06T01:14:46.812Z,92.60
2023-05-06T01:17:18.180Z,91.80
2023-05-06T01:19:49.068Z,92.10
2023-05-06T01:22:16.477Z,90.70
2023-05-06T01:24:45.152Z,91.10
2023-05-06T01:27:13.626Z,90.90
2023-05-06T01:29:44.139Z,91.00
2023-05-06T01:32:20.151Z,91.80
2023-05-06T01:35:10.320Z,91.70
2023-05-06T01:37:55.903Z,91.00
2023-05-06T01:40:27.348Z,90.50
2023-05-06T01:42:55.678Z,89.40
2023-05-06T01:45:27.102Z,91.40
2023-05-06T01:47:54.930Z,90.40
2023-05-06T01:50:22.058Z,90.10
2023-05-06T01:53:02.948Z,90.10
2023-05-06T01:55:29.827Z,90.30
2023-05-06T01:57:56.805Z,89.80
2023-05-06T02:00:27.057Z,89.80
2023-05-06T02:02:53.991Z,91.00
2023-05-06T02:05:20.903Z,91.20
2023-05-06T02:07:47.768Z,90.60
2023-05-06T02:10:14.639Z,91.30
2023-05-06T02:12:41.483Z,90.90
2023-05-06T02:15:09.089Z,92.20
2023-05-06T02:17:37.837Z,93.10
2023-05-06T02:20:06.008Z,93.70
2023-05-06T02:22:32.833Z,94.60
2023-05-06T02:24:59.693Z,94.90
2023-05-06T02:27:26.585Z,96.10
2023-05-06T02:29:53.535Z,95.80
2023-05-06T02:32:41.960Z,96.30
2023-05-06T02:35:09.443Z,96.80
2023-05-06T02:37:36.391Z,98.30
2023-05-06T02:40:03.255Z,98.50
2023-05-06T02:42:30.071Z,98.90
2023-05-06T02:44:57.330Z,99.30
2023-05-06T02:47:24.231Z,99.20
2023-05-06T02:49:51.078Z,99.70
2023-05-06T02:52:17.835Z,99.90
2023-05-06T02:54:44.583Z,99.90
2023-05-06T02:57:11.421Z,100.00
2023-05-06T02:59:38.210Z,100.00
2023-05-06T03:02:05.045Z,100.00
2023-05-06T03:04:31.943Z,100.00
2023-05-06T03:06:58.838Z,100.00
2023-05-06T03:09:25.793Z,100.00
2023-05-06T03:11:52.569Z,100.00
2023-05-06T03:14:19.483Z,100.00
2023-05-06T03:16:46.221Z,100.00
2023-05-06T03:19:13.028Z,100.00
2023-05-06T03:21:39.759Z,100.00
2023-05-06T03:24:06.683Z,100.00
2023-05-06T03:26:33.452Z,100.00
2023-05-06T03:29:00.270Z,100.00
2023-05-06T03:31:27.123Z,100.00
2023-05-06T03:33:53.959Z,100.00
2023-05-06T03:36:23.858Z,100.00
2023-05-06T03:38:51.209Z,100.00
2023-05-06T03:41:18.229Z,100.00
2023-05-06T03:43:45.015Z,100.00
2023-05-06T03:46:12.026Z,100.00
2023-05-06T03:48:38.851Z,100.00
2023-05-06T03:51:05.978Z,100.00
2023-05-06T03:53:32.822Z,100.00
2023-05-06T03:56:01.598Z,100.00
2023-05-06T03:58:28.459Z,100.00
2023-05-06T04:00:55.500Z,100.00
2023-05-06T04:03:22.352Z,100.00
2023-05-06T04:05:50.092Z,100.00
2023-05-06T04:08:17.272Z,100.00
2023-05-06T04:10:44.113Z,100.00
2023-05-06T04:13:11.054Z,100.00
2023-05-06T04:15:38.755Z,100.00
2023-05-06T04:18:07.933Z,100.00
2023-05-06T04:20:34.903Z,100.00
2023-05-06T04:23:02.183Z,100.00
2023-05-06T04:25:28.955Z,100.00
2023-05-06T04:27:55.848Z,100.00
2023-05-06T04:30:22.882Z,100.00
2023-05-06T04:32:49.708Z,100.00
2023-05-06T04:35:16.690Z,100.00
2023-05-06T04:37:44.286Z,100.00
2023-05-06T04:40:13.739Z,100.00
2023-05-06T04:42:40.771Z,100.00
2023-05-06T04:45:08.677Z,100.00
2023-05-06T04:47:35.992Z,100.00
2023-05-06T04:50:04.462Z,100.00
2023-05-06T04:52:31.380Z,100.00
2023-05-06T04:54:58.325Z,100.00
2023-05-06T04:57:25.074Z,100.00
2023-05-06T04:59:51.831Z,100.00
2023-05-06T05:02:18.798Z,100.00
2023-05-06T05:04:45.697Z,100.00
2023-05-06T05:07:14.368Z,100.00
2023-05-06T05:09:41.528Z,100.00
2023-05-06T05:12:08.435Z,100.00
2023-05-06T05:14:35.524Z,100.00
2023-05-06T05:17:02.336Z,100.00
2023-05-06T05:19:29.486Z,100.00
2023-05-06T05:21:56.642Z,100.00
2023-05-06T05:24:23.422Z,100.00
2023-05-06T05:26:50.193Z,100.00
2023-05-06T05:29:16.942Z,100.00
2023-05-06T05:31:43.779Z,100.00
2023-05-06T05:34:10.564Z,100.00
2023-05-06T05:36:37.405Z,100.00
2023-05-06T05:39:04.205Z,100.00
2023-05-06T05:41:31.225Z,100.00
2023-05-06T05:43:58.032Z,100.00
2023-05-06T05:46:24.785Z,100.00
2023-05-06T05:48:51.686Z,100.00
2023-05-06T05:51:18.607Z,100.00
2023-05-06T05:53:45.510Z,100.00
2023-05-06T05:56:12.352Z,100.00
2023-05-06T05:58:39.209Z,100.00
2023-05-06T06:01:06.136Z,100.00
2023-05-06T06:03:33.244Z,100.00
2023-05-06T06:06:00.295Z,100.00
2023-05-06T06:08:27.133Z,100.00
2023-05-06T06:10:54.032Z,100.00
2023-05-06T06:13:21.030Z,100.00
2023-05-06T06:15:47.887Z,100.00
2023-05-06T06:18:14.813Z,100.00
2023-05-06T06:20:41.672Z,100.00
2023-05-06T06:23:08.455Z,100.00
2023-05-06T06:25:35.269Z,100.00
2023-05-06T06:28:02.001Z,100.00
2023-05-06T06:30:28.868Z,100.00
2023-05-06T06:32:56.834Z,100.00
2023-05-06T06:35:23.778Z,100.00
2023-05-06T06:37:50.654Z,100.00
2023-05-06T06:40:17.492Z,100.00
2023-05-06T06:42:44.299Z,100.00
2023-05-06T06:45:11.738Z,100.00
2023-05-06T06:47:38.775Z,100.00
2023-05-06T06:50:06.666Z,100.00
2023-05-06T06:52:33.577Z,100.00
2023-05-06T06:55:00.910Z,100.00
2023-05-06T06:57:28.006Z,100.00
2023-05-06T06:59:55.646Z,100.00
2023-05-06T07:02:23.056Z,100.00
2023-05-06T07:04:49.955Z,100.00
2023-05-06T07:07:16.794Z,100.00
2023-05-06T07:09:44.268Z,100.00
2023-05-06T07:12:11.397Z,100.00
2023-05-06T07:14:38.187Z,100.00
2023-05-06T07:17:05.106Z,100.00
2023-05-06T07:20:15.637Z,100.00
2023-05-06T07:22:43.711Z,100.00
2023-05-06T07:25:10.818Z,100.00
2023-05-06T07:27:41.104Z,100.00
2023-05-06T07:30:11.245Z,100.00
2023-05-06T07:32:41.334Z,100.00
2023-05-06T07:35:09.232Z,100.00
2023-05-06T07:37:36.194Z,100.00
2023-05-06T07:40:06.276Z,100.00
2023-05-06T07:42:33.064Z,100.00
2023-05-06T07:45:00.625Z,100.00
2023-05-06T07:47:30.066Z,100.00
2023-05-06T07:49:57.244Z,100.00
2023-05-06T07:52:24.525Z,100.00
2023-05-06T07:54:51.491Z,100.00
2023-05-06T07:57:18.525Z,100.00
2023-05-06T07:59:49.580Z,100.00
2023-05-06T08:02:16.583Z,100.00
2023-05-06T08:04:49.590Z,100.00
2023-05-06T08:07:18.510Z,100.00
2023-05-06T08:09:45.567Z,100.00
2023-05-06T08:12:12.413Z,100.00
2023-05-06T08:14:39.368Z,100.00
2023-05-06T08:17:06.200Z,100.00
2023-05-06T08:19:35.388Z,100.00
2023-05-06T08:22:04.642Z,100.00
2023-05-06T08:24:31.458Z,100.00
2023-05-06T08:26:58.502Z,100.00
2023-05-06T08:29:25.283Z,100.00
2023-05-06T08:31:52.140Z,100.00
2023-05-06T08:34:21.195Z,100.00
2023-05-06T08:36:48.956Z,100.00
2023-05-06T08:39:15.995Z,100.00
2023-05-06T08:41:48.316Z,100.00
2023-05-06T08:44:18.985Z,99.60
2023-05-06T08:46:46.800Z,99.30
2023-05-06T08:49:13.814Z,99.20
2023-05-06T08:51:43.528Z,98.90
2023-05-06T08:54:13.815Z,99.30
2023-05-06T08:56:45.215Z,99.00
2023-05-06T08:59:16.140Z,98.60
2023-05-06T09:01:43.253Z,98.00
2023-05-06T09:04:10.753Z,97.80
2023-05-06T09:06:38.579Z,97.40
2023-05-06T09:09:05.737Z,96.90
2023-05-06T09:11:32.596Z,97.40
2023-05-06T09:14:13.435Z,97.90
2023-05-06T09:16:43.842Z,96.00
2023-05-06T09:19:10.891Z,96.00
2023-05-06T09:21:40.276Z,95.90
2023-05-06T09:24:08.680Z,94.90
2023-05-06T09:26:39.520Z,95.20
2023-05-06T09:29:07.055Z,95.80
2023-05-06T09:31:39.658Z,94.70
2023-05-06T09:34:07.244Z,94.80
2023-05-06T09:36:34.174Z,95.20
2023-05-06T09:39:01.155Z,94.00
2023-05-06T09:41:28.236Z,93.10
2023-05-06T09:43:56.003Z,93.40
2023-05-06T09:46:24.067Z,94.90
2023-05-06T09:48:52.169Z,94.40
2023-05-06T09:51:19.838Z,95.60
2023-05-06T09:53:47.249Z,94.60
2023-05-06T09:56:15.071Z,93.50
2023-05-06T09:58:42.516Z,93.80
2023-05-06T10:01:15.124Z,92.60
2023-05-06T10:03:47.061Z,93.90
2023-05-06T10:06:15.738Z,93.90
2023-05-06T10:08:45.995Z,94.40
2023-05-06T10:11:14.667Z,95.10
2023-05-06T10:13:42.937Z,92.70
2023-05-06T10:16:11.149Z,92.70
2023-05-06T10:18:39.472Z,91.80
2023-05-06T10:21:14.020Z,89.90
2023-05-06T10:23:49.160Z,91.80
2023-05-06T10:26:19.762Z,91.60
2023-05-06T10:28:49.808Z,91.60
2023-05-06T10:31:16.955Z,90.10
2023-05-06T10:33:48.373Z,91.40
2023-05-06T10:36:24.523Z,89.90
2023-05-06T10:38:57.236Z,90.40
2023-05-06T10:41:27.873Z,89.90
2023-05-06T10:43:56.821Z,89.40
2023-05-06T10:46:26.391Z,89.80
2023-05-06T10:49:13.916Z,91.20
2023-05-06T10:51:43.924Z,89.50
2023-05-06T10:54:20.584Z,88.50
2023-05-06T10:56:50.076Z,87.70
2023-05-06T10:59:29.634Z,87.50
2023-05-06T11:02:05.633Z,88.00
2023-05-06T11:04:33.752Z,86.50
2023-05-06T11:07:08.020Z,85.90
2023-05-06T11:10:00.898Z,86.30
2023-05-06T11:12:46.689Z,88.10
2023-05-06T11:15:40.522Z,86.80
2023-05-06T11:18:28.080Z,85.50
2023-05-06T11:21:01.077Z,86.70
2023-05-06T11:23:43.625Z,87.60
2023-05-06T11:26:11.170Z,87.10
2023-05-06T11:28:38.974Z,88.10
2023-05-06T11:31:07.884Z,87.90
2023-05-06T11:33:36.757Z,88.20
2023-05-06T11:36:07.500Z,88.00
2023-05-06T11:39:05.286Z,88.90
2023-05-06T11:41:32.126Z,88.60
2023-05-06T11:43:58.975Z,89.10
2023-05-06T11:46:32.027Z,88.90
2023-05-06T11:48:59.492Z,89.40
2023-05-06T11:51:26.856Z,88.10
2023-05-06T11:54:08.220Z,89.40
2023-05-06T11:56:49.635Z,89.70
2023-05-06T11:59:16.815Z,90.30
2023-05-06T12:01:45.269Z,90.50
2023-05-06T12:04:12.842Z,90.00
2023-05-06T12:06:40.168Z,89.30
2023-05-06T12:09:10.232Z,89.20
2023-05-06T12:11:38.596Z,89.40
2023-05-06T12:14:07.407Z,87.90
2023-05-06T12:16:36.018Z,88.20
2023-05-06T12:19:03.770Z,87.90
2023-05-06T12:21:30.958Z,88.20
2023-05-06T12:24:00.063Z,87.50
2023-05-06T12:26:27.714Z,89.00
2023-05-06T12:29:08.879Z,88.20
2023-05-06T12:31:36.026Z,87.40
2023-05-06T12:34:03.757Z,88.00
2023-05-06T12:36:32.372Z,89.10
2023-05-06T12:39:01.528Z,88.10
2023-05-06T12:41:47.526Z,88.80
2023-05-06T12:44:37.462Z,90.10
2023-05-06T12:47:05.458Z,92.10
2023-05-06T12:49:47.705Z,91.50
2023-05-06T12:52:15.609Z,92.40
2023-05-06T12:54:42.538Z,91.80
2023-05-06T12:57:09.434Z,91.70
2023-05-06T12:59:36.785Z,91.10
2023-05-06T13:02:04.793Z,91.80
2023-05-06T13:04:54.718Z,91.20
2023-05-06T13:07:22.268Z,91.20
2023-05-06T13:09:49.182Z,91.60
2023-05-06T13:12:16.791Z,91.40
2023-05-06T13:14:43.713Z,91.50
2023-05-06T13:17:11.088Z,91.10
2023-05-06T13:19:38.227Z,90.60
2023-05-06T13:22:05.199Z,91.10
2023-05-06T13:24:32.362Z,90.30
2023-05-06T13:27:02.155Z,89.60
2023-05-06T13:29:29.663Z,88.00
2023-05-06T13:31:56.933Z,89.20
2023-05-06T13:34:23.872Z,88.40
2023-05-06T13:36:51.009Z,89.90
2023-05-06T13:39:17.766Z,89.20
2023-05-06T13:41:50.004Z,88.80
2023-05-06T13:44:21.084Z,89.60
2023-05-06T13:46:48.754Z,88.40
2023-05-06T13:49:18.364Z,88.90
2023-05-06T13:51:45.335Z,90.30
2023-05-06T13:54:12.382Z,90.20
2023-05-06T13:56:39.224Z,90.40
2023-05-06T13:59:07.998Z,90.00
2023-05-06T14:01:58.045Z,89.40
2023-05-06T14:04:28.127Z,89.30
2023-05-06T14:06:56.150Z,89.20
2023-05-06T14:09:27.392Z,89.20
2023-05-06T14:12:09.638Z,89.00
2023-05-06T14:14:36.503Z,89.80
2023-05-06T14:17:06.746Z,90.00
2023-05-06T14:19:44.081Z,89.80
2023-05-06T14:22:12.339Z,89.50
2023-05-06T14:24:45.077Z,89.50
2023-05-06T14:27:16.064Z,89.70
2023-05-06T14:29:46.285Z,89.00
2023-05-06T14:32:13.353Z,89.00
2023-05-06T14:34:40.419Z,90.20
2023-05-06T14:37:08.005Z,90.10
2023-05-06T14:39:34.927Z,90.20
2023-05-06T14:42:01.842Z,90.60
2023-05-06T14:44:28.770Z,90.50
2023-05-06T14:46:56.261Z,90.70
2023-05-06T14:49:23.145Z,90.40
2023-05-06T14:51:50.958Z,90.40
2023-05-06T14:54:20.882Z,90.50
2023-05-06T14:56:49.487Z,91.00
2023-05-06T14:59:18.269Z,90.90
2023-05-06T15:01:45.092Z,91.20
2023-05-06T15:04:12.131Z,91.10
2023-05-06T15:06:38.899Z,91.00
2023-05-06T15:09:05.800Z,91.20
2023-05-06T15:11:32.848Z,90.90
2023-05-06T15:13:59.684Z,90.70
2023-05-06T15:16:26.625Z,90.80
2023-05-06T15:18:53.640Z,90.70
2023-05-06T15:21:20.723Z,90.90
2023-05-06T15:23:47.816Z,91.80
2023-05-06T15:26:14.817Z,90.80
2023-05-06T15:28:41.703Z,91.30
2023-05-06T15:31:08.500Z,91.40
2023-05-06T15:33:35.527Z,91.20
2023-05-06T15:36:02.426Z,90.90
2023-05-06T15:38:34.390Z,90.90
2023-05-06T15:41:01.261Z,91.30
2023-05-06T15:43:36.443Z,91.70
2023-05-06T15:46:05.929Z,91.70
2023-05-06T15:48:36.703Z,91.80
2023-05-06T15:51:03.690Z,91.70
2023-05-06T15:53:30.457Z,92.00
2023-05-06T15:56:07.184Z,92.30
2023-05-06T15:58:42.413Z,92.50
2023-05-06T16:01:12.437Z,92.20
2023-05-06T16:03:42.513Z,92.20
2023-05-06T16:06:11.014Z,91.90
2023-05-06T16:08:38.942Z,92.40
2023-05-06T16:11:06.475Z,92.30
2023-05-06T16:13:34.421Z,93.00
2023-05-06T16:16:01.644Z,93.10
2023-05-06T16:18:28.702Z,92.60
2023-05-06T16:20:55.778Z,92.40
2023-05-06T16:23:22.596Z,92.40
2023-05-06T16:25:49.564Z,92.60
2023-05-06T16:28:16.359Z,92.80
2023-05-06T16:30:44.954Z,92.50
2023-05-06T16:33:13.189Z,92.90
2023-05-06T16:35:40.366Z,92.30
2023-05-06T16:38:07.361Z,92.80
2023-05-06T16:40:41.472Z,92.60
2023-05-06T16:43:09.147Z,92.50
2023-05-06T16:45:36.322Z,93.00
2023-05-06T16:48:04.547Z,92.20
2023-05-06T16:50:31.938Z,92.10
2023-05-06T16:52:59.027Z,92.30
2023-05-06T16:55:38.322Z,92.30
2023-05-06T16:58:05.369Z,91.80
2023-05-06T17:00:33.884Z,92.30
2023-05-06T17:03:02.964Z,92.90
2023-05-06T17:05:31.141Z,92.40
2023-05-06T17:08:07.288Z,92.50
2023-05-06T17:10:34.441Z,92.70
2023-05-06T17:13:01.644Z,92.10
2023-05-06T17:15:31.247Z,92.20
2023-05-06T17:17:58.093Z,92.50
2023-05-06T17:20:25.270Z,92.90
2023-05-06T17:22:52.563Z,92.50
2023-05-06T17:25:19.796Z,92.70
2023-05-06T17:27:50.323Z,92.60
2023-05-06T17:30:20.834Z,92.50
2023-05-06T17:32:49.139Z,92.80
2023-05-06T17:35:16.291Z,92.60
2023-05-06T17:40:36.544Z,92.60
2023-05-06T17:43:03.956Z,92.40
2023-05-06T17:45:32.134Z,92.40
2023-05-06T17:48:01.150Z,92.90
2023-05-06T17:50:33.551Z,93.40
2023-05-06T17:53:03.448Z,93.30
2023-05-06T17:55:39.489Z,93.80
2023-05-06T17:58:16.705Z,93.60
2023-05-06T18:00:44.747Z,93.70
2023-05-06T18:03:14.208Z,93.90
2023-05-06T18:05:42.202Z,94.00
2023-05-06T18:08:11.483Z,94.40
2023-05-06T18:11:04.476Z,93.90
2023-05-06T18:13:36.417Z,94.30
2023-05-06T18:16:08.756Z,94.00
2023-05-06T18:18:41.911Z,93.90
2023-05-06T18:21:17.679Z,94.10
2023-05-06T18:23:44.746Z,94.10
2023-05-06T18:26:39.872Z,94.00
2023-05-06T18:29:12.506Z,94.10
2023-05-06T18:31:47.832Z,94.20
2023-05-06T18:34:14.617Z,94.10
2023-05-06T18:39:34.408Z,94.40
2023-05-06T18:42:10.309Z,94.60
2023-05-06T18:44:46.660Z,94.70
2023-05-06T18:47:13.684Z,94.80
2023-05-06T18:49:53.698Z,94.90
2023-05-06T18:52:22.331Z,94.60
2023-05-06T18:54:59.697Z,94.90
2023-05-06T18:57:34.222Z,94.60
2023-05-06T19:00:07.109Z,94.80
2023-05-06T19:02:51.973Z,94.60
2023-05-06T19:05:33.239Z,95.00
2023-05-06T19:08:02.805Z,95.10
2023-05-06T19:10:38.199Z,95.10
2023-05-06T19:13:07.587Z,95.30
2023-05-06T19:15:35.649Z,95.00
2023-05-06T19:18:06.226Z,95.10
2023-05-06T19:20:34.415Z,95.20
2023-05-06T19:23:07.263Z,95.10
2023-05-06T19:28:09.553Z,95.60
2023-05-06T19:30:39.530Z,95.30
2023-05-06T19:33:38.989Z,95.00
2023-05-06T19:36:09.185Z,94.90
2023-05-06T19:39:16.925Z,94.90
2023-05-06T19:41:43.949Z,94.80
2023-05-06T19:44:27.088Z,95.00
2023-05-06T19:47:10.057Z,95.10
2023-05-06T19:49:50.385Z,94.80
2023-05-06T19:52:22.243Z,94.90
2023-05-06T19:55:03.474Z,95.00
2023-05-06T19:57:35.657Z,95.00
2023-05-06T20:00:10.146Z,94.90
2023-05-06T20:02:38.083Z,94.90
2023-05-06T20:05:07.759Z,95.00
2023-05-06T20:07:34.638Z,94.90
2023-05-06T20:10:05.064Z,95.00
2023-05-06T20:12:33.728Z,94.60
2023-05-06T20:15:00.834Z,94.70
2023-05-06T20:17:30.746Z,94.60
2023-05-06T20:20:12.719Z,94.70
2023-05-06T20:22:40.905Z,94.80
2023-05-06T20:25:16.264Z,94.70
2023-05-06T20:27:46.424Z,95.00
2023-05-06T20:30:13.542Z,95.00
2023-05-06T20:33:20.668Z,95.10
2023-05-06T20:36:15.939Z,95.10
2023-05-06T20:38:49.256Z,95.30
2023-05-06T20:41:16.450Z,95.20
2023-05-06T20:46:44.101Z,95.30
2023-05-06T20:49:11.770Z,95.40
2023-05-06T20:51:44.186Z,95.30
2023-05-06T20:54:11.008Z,95.40
2023-05-06T20:56:39.956Z,95.40
2023-05-06T21:02:43.010Z,95.70
2023-05-06T21:05:10.497Z,95.60
2023-05-06T21:07:40.130Z,95.70
2023-05-06T21:10:07.363Z,95.40
2023-05-06T21:12:40.043Z,95.50
2023-05-06T21:15:21.455Z,95.60
2023-05-06T21:17:55.355Z,95.20
2023-05-06T21:20:22.513Z,95.60
2023-05-06T21:22:58.691Z,95.60
2023-05-06T21:25:32.572Z,95.80
2023-05-06T21:28:07.411Z,95.80
2023-05-06T21:30:37.706Z,95.90
2023-05-06T21:33:11.114Z,95.90
2023-05-06T21:35:41.244Z,96.00
2023-05-06T21:38:10.728Z,96.10
2023-05-06T21:40:37.706Z,96.00
2023-05-06T21:43:04.597Z,96.00
2023-05-06T21:45:32.908Z,96.30
2023-05-06T21:48:02.813Z,96.20
2023-05-06T21:50:29.815Z,96.50
2023-05-06T21:52:56.713Z,96.60
2023-05-06T21:55:23.695Z,96.60
2023-05-06T21:57:50.506Z,96.70
2023-05-06T22:00:17.648Z,96.90
2023-05-06T22:02:44.782Z,96.80
2023-05-06T22:05:12.092Z,96.90
2023-05-06T22:07:39.155Z,97.00
2023-05-06T22:10:06.497Z,97.10
2023-05-06T22:12:35.227Z,97.20
2023-05-06T22:15:02.393Z,97.40
2023-05-06T22:17:30.643Z,97.50
2023-05-06T22:19:57.648Z,97.60
2023-05-06T22:22:24.802Z,97.50
2023-05-06T22:24:51.636Z,97.30
2023-05-06T22:27:18.493Z,97.30
2023-05-06T22:29:45.355Z,97.00
2023-05-06T22:32:12.592Z,97.10
2023-05-06T22:34:39.398Z,97.40
2023-05-06T22:37:09.849Z,97.10
2023-05-06T22:39:36.772Z,96.90
2023-05-06T22:42:03.650Z,97.20
2023-05-06T22:44:30.688Z,97.20
2023-05-06T22:46:57.589Z,97.40
2023-05-06T22:49:28.774Z,97.30
2023-05-06T22:51:56.912Z,97.40
2023-05-06T22:54:24.273Z,97.50
2023-05-06T22:56:51.405Z,97.60
2023-05-06T22:59:18.234Z,97.30
2023-05-06T23:01:45.097Z,97.50
2023-05-06T23:04:12.052Z,97.40
2023-05-06T23:06:39.992Z,97.50
2023-05-06T23:09:07.984Z,97.60
2023-05-06T23:11:34.904Z,97.60
2023-05-06T23:14:01.922Z,97.40
2023-05-06T23:16:29.518Z,97.30
2023-05-06T23:18:59.290Z,97.50
2023-05-06T23:21:26.710Z,97.40
2023-05-06T23:23:53.656Z,97.20
2023-05-06T23:26:20.787Z,97.20
2023-05-06T23:28:47.643Z,97.00
2023-05-06T23:31:15.385Z,97.10
2023-05-06T23:33:42.358Z,97.20
2023-05-06T23:36:09.159Z,96.90
2023-05-06T23:38:35.887Z,96.90
2023-05-06T23:41:02.797Z,97.40
2023-05-06T23:43:29.579Z,97.20
2023-05-06T23:45:56.437Z,97.40
2023-05-06T23:48:23.200Z,97.20
2023-05-06T23:50:50.068Z,97.20
2023-05-06T23:53:16.915Z,97.20
2023-05-06T23:55:44.345Z,97.40
2023-05-06T23:58:11.299Z,97.30
